createdAt,value
2018-04-23T00:01:45.524Z,18.30
2018-04-23T00:04:12.208Z,15.47
2018-04-23T00:06:38.866Z,16.27
2018-04-23T00:09:05.530Z,17.05
2018-04-23T00:11:32.200Z,18.00
2018-04-23T00:13:58.850Z,17.03
2018-04-23T00:16:25.527Z,16.93
2018-04-23T00:18:52.203Z,17.60
2018-04-23T00:21:18.862Z,16.20
2018-04-23T00:23:45.534Z,16.97
2018-04-23T00:26:12.186Z,15.07
2018-04-23T00:28:38.861Z,16.70
2018-04-23T00:31:05.516Z,16.10
2018-04-23T00:33:32.488Z,18.00
2018-04-23T00:35:59.140Z,19.03
2018-04-23T00:38:26.475Z,16.30
2018-04-23T00:40:53.150Z,17.07
2018-04-23T00:43:19.802Z,16.50
2018-04-23T00:45:46.491Z,17.13
2018-04-23T00:48:13.162Z,17.53
2018-04-23T00:50:39.860Z,17.23
2018-04-23T00:53:12.329Z,18.20
2018-04-23T00:55:39.005Z,18.07
2018-04-23T00:58:05.695Z,17.63
2018-04-23T01:00:32.355Z,17.13
2018-04-23T01:02:59.007Z,18.73
2018-04-23T01:05:25.683Z,17.73
2018-04-23T01:07:52.345Z,17.37
2018-04-23T01:10:19.029Z,17.40
2018-04-23T01:12:45.688Z,17.60
2018-04-23T01:15:12.347Z,17.77
2018-04-23T01:17:39.031Z,17.30
2018-04-23T01:20:05.692Z,17.77
2018-04-23T01:22:32.372Z,19.27
2018-04-23T01:24:59.035Z,18.37
2018-04-23T01:27:25.695Z,18.40
2018-04-23T01:29:52.379Z,17.60
2018-04-23T01:32:19.034Z,17.20
2018-04-23T01:34:45.720Z,16.37
2018-04-23T01:37:12.374Z,17.67
2018-04-23T01:39:39.046Z,16.93
2018-04-23T01:42:05.714Z,18.30
2018-04-23T01:44:32.372Z,16.70
2018-04-23T01:46:59.055Z,18.63
2018-04-23T01:49:25.710Z,17.57
2018-04-23T01:51:52.366Z,18.70
2018-04-23T01:54:19.038Z,18.47
2018-04-23T01:56:45.695Z,17.30
2018-04-23T01:59:12.410Z,20.00
2018-04-23T02:01:39.639Z,19.00
2018-04-23T02:04:06.302Z,18.67
2018-04-23T02:06:34.123Z,19.47
2018-04-23T02:09:00.779Z,19.40
2018-04-23T02:11:27.455Z,17.93
2018-04-23T02:13:54.118Z,18.73
2018-04-23T02:16:20.779Z,18.30
2018-04-23T02:18:47.451Z,20.20
2018-04-23T02:21:14.105Z,18.63
2018-04-23T02:23:41.140Z,20.33
2018-04-23T02:26:07.793Z,18.43
2018-04-23T02:28:34.450Z,20.27
2018-04-23T02:31:01.124Z,19.40
2018-04-23T02:33:27.811Z,20.60
2018-04-23T02:35:54.504Z,19.00
2018-04-23T02:38:21.162Z,20.10
2018-04-23T02:40:47.824Z,20.07
2018-04-23T02:43:14.514Z,19.43
2018-04-23T02:45:41.181Z,22.10
2018-04-23T02:48:07.872Z,20.40
2018-04-23T02:50:34.531Z,19.57
2018-04-23T02:53:01.191Z,21.23
2018-04-23T02:55:27.867Z,21.57
2018-04-23T02:57:54.726Z,20.77
2018-04-23T03:00:21.395Z,21.77
2018-04-23T03:02:48.055Z,22.30
2018-04-23T03:05:14.720Z,21.97
2018-04-23T03:07:41.399Z,21.37
2018-04-23T03:10:08.048Z,20.00
2018-04-23T03:12:34.831Z,21.57
2018-04-23T03:15:01.493Z,19.50
2018-04-23T03:17:28.191Z,21.67
2018-04-23T03:19:54.844Z,18.43
2018-04-23T03:22:21.513Z,17.57
2018-04-23T03:24:48.207Z,18.90
2018-04-23T03:27:14.865Z,18.10
2018-04-23T03:29:41.540Z,18.00
2018-04-23T03:32:08.198Z,17.67
2018-04-23T03:34:34.863Z,17.97
2018-04-23T03:37:01.538Z,15.30
2018-04-23T03:39:28.195Z,17.27
2018-04-23T03:41:54.875Z,17.83
2018-04-23T03:44:21.546Z,16.90
2018-04-23T03:46:48.207Z,20.27
2018-04-23T03:49:14.884Z,18.23
2018-04-23T03:51:41.540Z,18.83
2018-04-23T03:54:08.215Z,20.00
2018-04-23T03:56:34.867Z,19.80
2018-04-23T03:59:01.521Z,20.27
2018-04-23T04:01:28.215Z,18.40
2018-04-23T04:03:55.055Z,18.00
2018-04-23T04:06:21.732Z,18.75
2018-04-23T04:08:48.390Z,19.80
2018-04-23T04:11:15.054Z,17.93
2018-04-23T04:13:47.509Z,20.23
2018-04-23T04:16:31.910Z,19.90
2018-04-23T04:18:58.570Z,18.90
2018-04-23T04:21:25.297Z,20.60
2018-04-23T04:23:51.962Z,21.67
2018-04-23T04:26:18.622Z,20.37
2018-04-23T04:28:45.631Z,20.60
2018-04-23T04:31:12.302Z,22.27
2018-04-23T04:33:38.962Z,19.80
2018-04-23T04:36:05.636Z,20.93
2018-04-23T04:38:32.301Z,21.63
2018-04-23T04:40:58.978Z,20.97
2018-04-23T04:43:25.629Z,19.37
2018-04-23T04:45:52.286Z,19.03
2018-04-23T04:48:18.971Z,20.30
2018-04-23T04:50:45.626Z,18.93
2018-04-23T04:53:12.294Z,20.07
2018-04-23T04:55:38.951Z,19.53
2018-04-23T04:58:05.607Z,20.30
2018-04-23T05:00:34.198Z,20.40
2018-04-23T05:03:01.057Z,21.02
2018-04-23T05:05:27.747Z,19.70
2018-04-23T05:07:54.399Z,19.43
2018-04-23T05:10:21.054Z,21.47
2018-04-23T05:12:47.731Z,20.87
2018-04-23T05:15:14.387Z,20.17
2018-04-23T05:17:41.095Z,20.00
2018-04-23T05:20:07.747Z,22.47
2018-04-23T05:22:34.405Z,22.27
2018-04-23T05:25:01.105Z,23.40
2018-04-23T05:27:27.770Z,21.27
2018-04-23T05:29:54.490Z,24.00
2018-04-23T05:32:21.136Z,23.57
2018-04-23T05:34:47.799Z,24.20
2018-04-23T05:37:14.470Z,20.50
2018-04-23T05:39:41.128Z,23.03
2018-04-23T05:42:07.815Z,24.50
2018-04-23T05:44:34.471Z,23.50
2018-04-23T05:47:01.131Z,29.23
2018-04-23T05:49:27.806Z,82.43
2018-04-23T05:51:54.459Z,26.27
2018-04-23T05:54:21.163Z,24.20
2018-04-23T05:56:47.819Z,23.53
2018-04-23T05:59:14.474Z,23.70
2018-04-23T06:01:41.154Z,25.50
2018-04-23T06:04:07.815Z,22.67
2018-04-23T06:06:34.482Z,23.67
2018-04-23T06:09:01.139Z,24.33
2018-04-23T06:11:28.223Z,24.37
2018-04-23T06:13:54.876Z,22.67
2018-04-23T06:16:21.530Z,22.97
2018-04-23T06:18:48.206Z,25.33
2018-04-23T06:21:14.859Z,21.70
2018-04-23T06:23:41.535Z,21.70
2018-04-23T06:26:08.199Z,23.43
2018-04-23T06:28:34.859Z,21.43
2018-04-23T06:31:01.530Z,21.07
2018-04-23T06:33:28.190Z,19.83
2018-04-23T06:35:55.147Z,20.43
2018-04-23T06:38:21.810Z,21.92
2018-04-23T06:40:48.465Z,21.90
2018-04-23T06:43:15.149Z,19.30
2018-04-23T06:45:41.802Z,22.40
2018-04-23T06:48:08.494Z,19.80
2018-04-23T06:50:35.156Z,17.87
2018-04-23T06:53:01.815Z,19.03
2018-04-23T06:55:28.495Z,19.53
2018-04-23T06:57:55.153Z,18.57
2018-04-23T07:00:21.841Z,17.67
2018-04-23T07:02:48.511Z,16.50
2018-04-23T07:05:15.165Z,14.80
2018-04-23T07:07:41.842Z,15.30
2018-04-23T07:10:08.498Z,12.23
2018-04-23T07:12:35.187Z,13.97
2018-04-23T07:15:01.852Z,13.00
2018-04-23T07:17:28.514Z,12.90
2018-04-23T07:19:55.208Z,13.07
2018-04-23T07:22:21.867Z,13.70
2018-04-23T07:24:48.674Z,15.67
2018-04-23T07:27:15.325Z,13.40
2018-04-23T07:29:42.191Z,12.43
2018-04-23T07:32:08.876Z,13.73
2018-04-23T07:34:35.537Z,12.77
2018-04-23T07:37:02.227Z,12.13
2018-04-23T07:39:28.894Z,12.50
2018-04-23T07:41:55.551Z,13.90
2018-04-23T07:44:22.229Z,12.20
2018-04-23T07:46:48.895Z,12.40
2018-04-23T07:49:15.572Z,12.63
2018-04-23T07:51:42.232Z,13.00
2018-04-23T07:54:08.896Z,12.20
2018-04-23T07:56:35.598Z,11.63
2018-04-23T07:59:02.267Z,11.43
2018-04-23T08:01:28.948Z,11.70
2018-04-23T08:03:55.603Z,11.37
2018-04-23T08:06:22.262Z,10.50
2018-04-23T08:08:48.940Z,12.03
2018-04-23T08:11:15.593Z,11.10
2018-04-23T08:13:42.294Z,12.47
2018-04-23T08:16:08.955Z,12.17
2018-04-23T08:18:35.619Z,12.20
2018-04-23T08:21:02.299Z,13.32
2018-04-23T08:23:28.955Z,12.57
2018-04-23T08:25:56.127Z,14.10
2018-04-23T08:28:22.791Z,13.57
2018-04-23T08:30:49.470Z,13.37
2018-04-23T08:33:16.127Z,12.00
2018-04-23T08:35:42.819Z,13.50
2018-04-23T08:38:09.494Z,13.90
2018-04-23T08:40:36.163Z,12.93
2018-04-23T08:43:02.839Z,12.20
2018-04-23T08:45:29.486Z,12.77
2018-04-23T08:47:56.135Z,12.60
2018-04-23T08:50:22.829Z,12.93
2018-04-23T08:52:49.492Z,13.23
2018-04-23T08:55:16.331Z,12.43
2018-04-23T08:57:43.117Z,12.90
2018-04-23T09:00:09.767Z,13.33
2018-04-23T09:02:36.434Z,12.20
2018-04-23T09:05:03.093Z,11.93
2018-04-23T09:07:29.758Z,12.23
2018-04-23T09:09:56.426Z,13.43
2018-04-23T09:12:23.102Z,12.40
2018-04-23T09:14:49.794Z,13.02
2018-04-23T09:17:16.450Z,12.40
2018-04-23T09:19:43.124Z,11.30
2018-04-23T09:22:09.791Z,13.43
2018-04-23T09:24:36.454Z,11.30
2018-04-23T09:27:03.130Z,12.10
2018-04-23T09:29:29.813Z,10.47
2018-04-23T09:31:56.509Z,11.03
2018-04-23T09:34:23.167Z,9.80
2018-04-23T09:36:49.814Z,10.27
2018-04-23T09:39:16.476Z,9.80
2018-04-23T09:41:43.502Z,10.07
2018-04-23T09:44:10.175Z,10.27
2018-04-23T09:46:36.827Z,9.07
2018-04-23T09:49:03.475Z,8.47
2018-04-23T09:51:30.146Z,9.57
2018-04-23T09:53:56.839Z,10.07
2018-04-23T09:56:23.518Z,6.90
2018-04-23T09:58:50.177Z,7.37
2018-04-23T10:01:20.750Z,6.10
2018-04-23T10:03:50.355Z,5.20
2018-04-23T10:06:17.515Z,5.13
2018-04-23T10:08:44.210Z,5.47
2018-04-23T10:11:10.855Z,6.50
2018-04-23T10:13:37.511Z,5.27
2018-04-23T10:16:04.192Z,6.53
2018-04-23T10:18:30.843Z,6.10
2018-04-23T10:20:57.556Z,5.70
2018-04-23T10:23:24.174Z,5.93
2018-04-23T10:25:50.818Z,4.57
2018-04-23T10:28:17.494Z,5.23
2018-04-23T10:30:44.140Z,4.90
2018-04-23T10:33:10.804Z,4.60
2018-04-23T10:35:37.454Z,4.47
2018-04-23T10:38:04.107Z,6.10
2018-04-23T10:40:30.770Z,6.00
2018-04-23T10:42:57.415Z,5.07
2018-04-23T10:45:24.086Z,4.37
2018-04-23T10:47:50.742Z,4.70
2018-04-23T10:50:17.556Z,5.97
2018-04-23T10:52:44.206Z,4.90
2018-04-23T10:55:10.850Z,5.30
2018-04-23T10:57:37.516Z,5.20
2018-04-23T11:00:04.163Z,3.93
2018-04-23T11:02:30.835Z,4.00
2018-04-23T11:04:57.500Z,4.97
2018-04-23T11:07:24.187Z,4.23
2018-04-23T11:09:51.016Z,4.57
2018-04-23T11:12:17.700Z,4.00
2018-04-23T11:14:44.378Z,4.23
2018-04-23T11:17:11.076Z,4.50
2018-04-23T11:19:37.735Z,3.87
2018-04-23T11:22:04.382Z,3.83
2018-04-23T11:24:31.040Z,3.80
2018-04-23T11:26:57.711Z,4.17
2018-04-23T11:29:24.384Z,3.67
2018-04-23T11:31:51.697Z,3.78
2018-04-23T11:34:18.360Z,3.10
2018-04-23T11:36:45.017Z,3.80
2018-04-23T11:39:11.697Z,3.63
2018-04-23T11:41:38.354Z,3.77
2018-04-23T11:44:05.036Z,3.83
2018-04-23T11:46:31.695Z,3.93
2018-04-23T11:48:58.346Z,3.30
2018-04-23T11:51:25.033Z,4.53
2018-04-23T11:53:51.683Z,4.10
2018-04-23T11:56:18.366Z,3.93
2018-04-23T11:58:45.023Z,3.63
2018-04-23T12:01:11.683Z,3.77
2018-04-23T12:03:38.358Z,3.97
2018-04-23T12:06:05.004Z,2.97
2018-04-23T12:08:31.677Z,2.70
2018-04-23T12:10:58.325Z,3.60
2018-04-23T12:13:24.973Z,3.90
2018-04-23T12:15:51.833Z,3.80
2018-04-23T12:18:18.475Z,3.80
2018-04-23T12:20:45.138Z,3.67
2018-04-23T12:23:11.795Z,3.57
2018-04-23T12:25:38.459Z,3.10
2018-04-23T12:28:05.122Z,3.10
2018-04-23T12:30:31.777Z,4.57
2018-04-23T12:32:58.736Z,3.65
2018-04-23T12:35:25.386Z,3.20
2018-04-23T12:37:52.034Z,3.60
2018-04-23T12:40:18.693Z,3.62
2018-04-23T12:42:45.344Z,3.93
2018-04-23T12:45:12.236Z,3.90
2018-04-23T12:47:38.891Z,4.10
2018-04-23T12:50:05.546Z,3.87
2018-04-23T12:52:32.223Z,4.80
2018-04-23T12:54:58.878Z,3.80
2018-04-23T12:57:25.543Z,4.33
2018-04-23T12:59:52.185Z,3.47
2018-04-23T13:02:18.850Z,3.50
2018-04-23T13:04:45.518Z,3.63
2018-04-23T13:07:12.171Z,3.53
2018-04-23T13:09:38.823Z,4.40
2018-04-23T13:12:05.491Z,3.00
2018-04-23T13:14:32.137Z,3.80
2018-04-23T13:16:58.787Z,4.63
2018-04-23T13:19:25.447Z,4.17
2018-04-23T13:21:52.107Z,3.73
2018-04-23T13:24:18.770Z,3.43
2018-04-23T13:26:45.421Z,4.60
2018-04-23T13:29:12.081Z,3.60
2018-04-23T13:31:38.743Z,4.10
2018-04-23T13:34:05.410Z,3.60
2018-04-23T13:36:32.096Z,3.83
2018-04-23T13:38:58.756Z,3.90
2018-04-23T13:41:25.409Z,4.47
2018-04-23T13:43:52.231Z,3.90
2018-04-23T13:46:18.883Z,2.97
2018-04-23T13:48:45.546Z,3.93
2018-04-23T13:51:12.195Z,3.87
2018-04-23T13:53:38.843Z,3.07
2018-04-23T13:56:05.514Z,3.80
2018-04-23T13:58:32.163Z,4.10
2018-04-23T14:00:58.831Z,3.62
2018-04-23T14:03:25.478Z,2.85
2018-04-23T14:05:52.613Z,2.70
2018-04-23T14:08:19.357Z,3.30
2018-04-23T14:10:46.011Z,3.30
2018-04-23T14:13:12.689Z,2.80
2018-04-23T14:15:39.342Z,3.53
2018-04-23T14:18:05.996Z,3.83
2018-04-23T14:20:32.669Z,3.83
2018-04-23T14:22:59.347Z,4.20
2018-04-23T14:25:26.019Z,2.63
2018-04-23T14:27:52.658Z,3.53
2018-04-23T14:30:19.304Z,3.17
2018-04-23T14:32:45.972Z,3.83
2018-04-23T14:35:12.614Z,3.73
2018-04-23T14:37:39.307Z,3.70
2018-04-23T14:40:05.990Z,3.50
2018-04-23T14:42:32.638Z,3.80
2018-04-23T14:44:59.298Z,3.70
2018-04-23T14:47:26.243Z,2.87
2018-04-23T14:49:52.915Z,3.60
2018-04-23T14:52:19.567Z,3.93
2018-04-23T14:54:46.229Z,4.00
2018-04-23T14:57:12.911Z,4.43
2018-04-23T14:59:39.562Z,4.03
2018-04-23T15:02:06.233Z,3.80
2018-04-23T15:04:32.897Z,3.67
2018-04-23T15:06:59.567Z,4.23
2018-04-23T15:09:26.218Z,4.47
2018-04-23T15:11:52.880Z,4.60
2018-04-23T15:14:19.550Z,4.27
2018-04-23T15:16:46.198Z,4.30
2018-04-23T15:19:12.871Z,4.33
2018-04-23T15:21:39.527Z,4.63
2018-04-23T15:24:06.178Z,4.70
2018-04-23T15:26:32.838Z,4.30
2018-04-23T15:28:59.488Z,3.73
2018-04-23T15:31:26.161Z,4.27
2018-04-23T15:33:52.815Z,4.03
2018-04-23T15:36:19.464Z,4.17
2018-04-23T15:38:46.154Z,3.67
2018-04-23T15:41:12.805Z,4.63
2018-04-23T15:43:39.480Z,4.00
2018-04-23T15:46:06.142Z,3.13
2018-04-23T15:48:32.792Z,4.00
2018-04-23T15:50:59.459Z,3.50
2018-04-23T15:53:26.138Z,4.20
2018-04-23T15:55:52.815Z,3.77
2018-04-23T15:58:19.513Z,3.53
2018-04-23T16:00:46.162Z,4.57
2018-04-23T16:03:12.806Z,4.43
2018-04-23T16:05:39.453Z,3.30
2018-04-23T16:08:06.131Z,5.40
2018-04-23T16:10:32.778Z,4.70
2018-04-23T16:12:59.444Z,4.37
2018-04-23T16:15:26.097Z,5.07
2018-04-23T16:17:52.763Z,4.70
2018-04-23T16:20:19.407Z,3.70
2018-04-23T16:22:46.061Z,4.50
2018-04-23T16:25:12.728Z,5.03
2018-04-23T16:27:39.378Z,4.20
2018-04-23T16:30:06.104Z,4.87
2018-04-23T16:32:32.889Z,3.90
2018-04-23T16:34:59.654Z,4.50
2018-04-23T16:37:26.328Z,4.35
2018-04-23T16:39:52.977Z,4.00
2018-04-23T16:42:19.650Z,4.87
2018-04-23T16:44:50.541Z,4.78
2018-04-23T16:47:12.969Z,4.33
2018-04-23T16:49:39.642Z,4.67
2018-04-23T16:52:06.287Z,4.73
2018-04-23T16:54:32.955Z,4.90
2018-04-23T16:56:59.595Z,4.70
2018-04-23T16:59:26.252Z,4.87
2018-04-23T17:01:52.929Z,5.30
2018-04-23T17:04:19.589Z,4.83
2018-04-23T17:06:46.262Z,4.47
2018-04-23T17:09:12.929Z,4.97
2018-04-23T17:11:39.579Z,5.20
2018-04-23T17:14:06.258Z,6.93
2018-04-23T17:16:32.908Z,4.87
2018-04-23T17:18:59.797Z,5.50
2018-04-23T17:21:26.458Z,5.07
2018-04-23T17:23:53.118Z,5.30
2018-04-23T17:26:19.780Z,4.53
2018-04-23T17:28:46.434Z,4.13
2018-04-23T17:31:13.106Z,6.50
2018-04-23T17:33:39.766Z,5.10
2018-04-23T17:36:06.425Z,5.50
2018-04-23T17:38:33.106Z,5.73
2018-04-23T17:41:00.178Z,4.80
2018-04-23T17:43:26.865Z,5.43
2018-04-23T17:45:53.534Z,5.37
2018-04-23T17:48:20.286Z,5.30
2018-04-23T17:50:46.951Z,6.00
2018-04-23T17:53:13.650Z,5.03
2018-04-23T17:55:40.639Z,5.80
2018-04-23T17:58:07.291Z,5.10
2018-04-23T18:00:33.961Z,5.37
2018-04-23T18:03:00.808Z,4.83
2018-04-23T18:05:27.528Z,6.80
2018-04-23T18:07:54.254Z,7.07
2018-04-23T18:10:20.915Z,5.70
2018-04-23T18:12:47.661Z,6.50
2018-04-23T18:15:14.323Z,5.43
2018-04-23T18:17:40.993Z,6.63
2018-04-23T18:20:07.687Z,7.00
2018-04-23T18:22:34.350Z,6.37
2018-04-23T18:25:01.023Z,5.27
2018-04-23T18:27:27.669Z,6.10
2018-04-23T18:29:54.326Z,6.57
2018-04-23T18:32:20.990Z,6.73
2018-04-23T18:34:47.629Z,5.57
2018-04-23T18:37:14.310Z,5.90
2018-04-23T18:39:40.969Z,5.60
2018-04-23T18:42:07.619Z,5.50
2018-04-23T18:44:34.279Z,5.47
2018-04-23T18:47:00.933Z,6.60
2018-04-23T18:49:27.624Z,6.40
2018-04-23T18:51:54.301Z,5.70
2018-04-23T18:54:20.957Z,5.53
2018-04-23T18:56:47.655Z,5.47
2018-04-23T18:59:14.379Z,6.10
2018-04-23T19:01:41.053Z,5.20
2018-04-23T19:04:07.724Z,5.43
2018-04-23T19:06:34.428Z,6.27
2018-04-23T19:09:01.334Z,5.50
2018-04-23T19:11:27.983Z,4.90
2018-04-23T19:13:54.680Z,4.67
2018-04-23T19:16:21.331Z,5.40
2018-04-23T19:18:47.990Z,3.67
2018-04-23T19:21:14.664Z,4.70
2018-04-23T19:23:41.341Z,4.87
2018-04-23T19:26:08.039Z,4.15
2018-04-23T19:28:34.935Z,4.10
2018-04-23T19:31:01.586Z,5.20
2018-04-23T19:33:28.294Z,4.93
2018-04-23T19:35:55.004Z,5.20
2018-04-23T19:38:21.639Z,4.23
2018-04-23T19:40:48.324Z,5.40
2018-04-23T19:43:14.984Z,4.67
2018-04-23T19:45:41.869Z,5.57
2018-04-23T19:48:08.573Z,5.87
2018-04-23T19:50:35.299Z,5.30
2018-04-23T19:53:02.656Z,5.33
2018-04-23T19:55:29.808Z,5.67
2018-04-23T19:57:56.471Z,4.27
2018-04-23T20:00:23.176Z,4.87
2018-04-23T20:02:50.468Z,4.83
2018-04-23T20:05:17.115Z,5.00
2018-04-23T20:07:43.917Z,4.87
2018-04-23T20:10:11.092Z,5.43
2018-04-23T20:12:37.849Z,5.07
2018-04-23T20:15:04.548Z,5.28
2018-04-23T20:17:31.850Z,5.60
2018-04-23T20:19:59.000Z,4.70
2018-04-23T20:22:25.694Z,4.83
2018-04-23T20:24:52.715Z,6.03
2018-04-23T20:27:19.384Z,5.87
2018-04-23T20:29:46.050Z,6.50
2018-04-23T20:32:13.084Z,7.00
2018-04-23T20:34:39.746Z,6.57
2018-04-23T20:37:06.410Z,6.37
2018-04-23T20:39:33.084Z,6.40
2018-04-23T20:41:59.907Z,7.07
2018-04-23T20:44:26.661Z,6.67
2018-04-23T20:46:53.517Z,7.30
2018-04-23T20:49:20.311Z,8.87
2018-04-23T20:51:46.973Z,6.53
2018-04-23T20:54:13.791Z,6.10
2018-04-23T20:56:40.914Z,7.10
2018-04-23T20:59:07.851Z,6.90
2018-04-23T21:01:34.560Z,7.40
2018-04-23T21:04:01.391Z,6.40
2018-04-23T21:06:28.147Z,7.37
2018-04-23T21:08:54.895Z,6.00
2018-04-23T21:11:21.922Z,5.67
2018-04-23T21:13:48.695Z,5.40
2018-04-23T21:16:15.399Z,5.32
2018-04-23T21:18:42.614Z,6.10
2018-04-23T21:21:10.026Z,5.90
2018-04-23T21:23:36.703Z,5.17
2018-04-23T21:26:03.393Z,4.80
2018-04-23T21:28:30.150Z,5.90
2018-04-23T21:30:56.854Z,7.33
2018-04-23T21:33:23.852Z,5.57
2018-04-23T21:35:50.991Z,5.83
2018-04-23T21:38:17.640Z,5.77
2018-04-23T21:40:44.307Z,5.67
2018-04-23T21:43:10.954Z,6.10
2018-04-23T21:45:37.780Z,5.50
2018-04-23T21:48:04.436Z,5.60
2018-04-23T21:50:31.104Z,4.87
2018-04-23T21:52:57.744Z,5.17
2018-04-23T21:55:24.386Z,5.67
2018-04-23T21:57:51.055Z,5.90
2018-04-23T22:00:17.712Z,5.40
2018-04-23T22:02:44.468Z,5.50
2018-04-23T22:05:11.214Z,5.07
2018-04-23T22:07:38.166Z,4.97
2018-04-23T22:10:04.807Z,5.30
2018-04-23T22:12:31.467Z,5.27
2018-04-23T22:14:58.156Z,5.30
2018-04-23T22:17:24.799Z,5.27
2018-04-23T22:19:51.482Z,5.93
2018-04-23T22:22:18.516Z,6.65
2018-04-23T22:24:45.159Z,5.57
2018-04-23T22:27:11.833Z,6.10
2018-04-23T22:29:38.490Z,5.90
2018-04-23T22:32:05.181Z,6.00
2018-04-23T22:34:31.833Z,4.43
2018-04-23T22:36:58.506Z,6.40
2018-04-23T22:39:25.181Z,6.20
2018-04-23T22:41:51.828Z,5.70
2018-04-23T22:44:18.503Z,5.13
2018-04-23T22:46:45.159Z,6.47
2018-04-23T22:49:11.824Z,5.80
2018-04-23T22:51:38.503Z,6.00
2018-04-23T22:54:05.155Z,4.40
2018-04-23T22:56:31.835Z,7.10
2018-04-23T22:58:58.492Z,6.03
2018-04-23T23:01:25.878Z,6.10
2018-04-23T23:03:52.560Z,5.90
2018-04-23T23:06:19.201Z,6.00
2018-04-23T23:08:45.880Z,5.68
2018-04-23T23:11:12.539Z,6.93
2018-04-23T23:13:39.260Z,6.40
2018-04-23T23:16:05.972Z,5.17
2018-04-23T23:18:32.621Z,6.07
2018-04-23T23:20:59.299Z,5.67
2018-04-23T23:23:25.948Z,6.00
2018-04-23T23:25:52.615Z,5.80
2018-04-23T23:28:19.274Z,6.20
2018-04-23T23:30:45.926Z,6.23
2018-04-23T23:33:12.579Z,6.70
2018-04-23T23:35:39.270Z,5.25
2018-04-23T23:38:05.937Z,5.87
2018-04-23T23:40:32.607Z,5.23
2018-04-23T23:42:59.442Z,5.70
2018-04-23T23:45:26.091Z,5.60
2018-04-23T23:47:52.763Z,5.13
2018-04-23T23:50:19.442Z,5.97
2018-04-23T23:52:46.120Z,5.97
2018-04-23T23:55:12.764Z,5.93
2018-04-23T23:57:39.439Z,6.27
